Time;durP1;ratioP1;P1;durP2;ratioP2;P2;SDS_P1;SDS_P2;PMS_P1;PMS_P2;Temp;Humidity;BMP_temperature;BMP_pressure;BME280_temperature;BME280_humidity;BME280_pressure;Samples;Min_cycle;Max_cycle;Signal;HPM_P1;HPM_P2
2021/06/14 00:02:50;;;;;;;9.25;2.98;;;;;;;21.82;54.10;99646.45;4278950;82;28438;-82
2021/06/14 00:08:51;;;;;;;9.93;2.90;;;;;;;21.61;56.56;99640.36;4267575;82;28474;-83
2021/06/14 00:14:53;;;;;;;6.37;2.55;;;;;;;21.51;55.51;99654.97;4308234;81;28464;-81
2021/06/14 00:20:59;;;;;;;7.62;3.45;;;;;;;21.31;57.60;99643.13;4299263;81;28469;-82
2021/06/14 00:27:00;;;;;;;8.53;2.63;;;;;;;21.08;58.38;99644.70;4301262;82;28512;-81
2021/06/14 00:33:02;;;;;;;7.80;2.92;;;;;;;21.15;57.50;99643.25;4306305;82;28458;-82
2021/06/14 00:39:04;;;;;;;9.45;3.33;;;;;;;20.99;56.89;99641.77;4287767;81;28512;-81
2021/06/14 00:45:14;;;;;;;5.78;2.40;;;;;;;20.46;58.34;99641.81;4285311;82;28504;-83
2021/06/14 00:51:15;;;;;;;8.00;3.15;;;;;;;20.25;59.29;99642.49;4290827;81;28527;-82
2021/06/14 00:57:17;;;;;;;6.75;2.40;;;;;;;20.48;57.73;99644.53;4290703;82;28496;-82
2021/06/14 01:03:19;;;;;;;5.72;2.50;;;;;;;20.65;55.68;99648.81;4334613;81;28434;-82
2021/06/14 01:09:20;;;;;;;5.53;2.30;;;;;;;20.86;54.44;99649.50;4320022;81;28503;-83
2021/06/14 01:15:25;;;;;;;8.85;2.50;;;;;;;20.00;57.43;99653.24;4301855;81;28484;-82
2021/06/14 01:21:31;;;;;;;6.12;2.00;;;;;;;19.58;59.99;99657.16;4317851;81;28466;-83
2021/06/14 01:27:41;;;;;;;8.33;2.30;;;;;;;20.41;56.41;99656.34;4319689;81;28481;-83
2021/06/14 01:33:45;;;;;;;8.33;2.75;;;;;;;20.18;59.28;99658.62;4281953;82;28495;-83
2021/06/14 01:39:49;;;;;;;7.65;2.60;;;;;;;20.12;58.11;99654.83;4283135;82;28492;-82
2021/06/14 01:46:01;;;;;;;6.50;2.33;;;;;;;;;;4291984;82;28503;-82
2021/06/14 01:52:04;;;;;;;7.37;2.70;;;;;;;20.04;57.92;99664.42;4293915;82;28496;-82
2021/06/14 01:58:06;;;;;;;9.53;2.17;;;;;;;20.02;56.98;99658.44;4303151;82;28479;-82
2021/06/14 02:04:10;;;;;;;6.97;2.58;;;;;;;20.56;55.43;99662.23;4287174;81;28477;-86
2021/06/14 02:10:23;;;;;;;8.40;2.80;;;;;;;20.18;58.11;99651.80;4283654;82;28465;-82
2021/06/14 02:16:28;;;;;;;7.40;2.70;;;;;;;19.84;58.83;99655.75;4258377;82;28490;-81
2021/06/14 02:22:29;;;;;;;5.25;2.27;;;;;;;19.96;58.03;99658.17;4265904;82;28539;-82
2021/06/14 02:28:31;;;;;;;9.28;2.72;;;;;;;20.07;57.78;99654.30;4294563;82;28507;-82
2021/06/14 02:34:36;;;;;;;8.10;3.08;;;;;;;20.22;57.10;99658.87;4279874;82;28443;-84
2021/06/14 02:40:41;;;;;;;11.48;3.30;;;;;;;19.84;58.66;99657.11;4266352;82;28506;-84
2021/06/14 02:46:45;;;;;;;7.50;2.85;;;;;;;19.87;58.77;99660.08;4277422;82;28464;-84
2021/06/14 02:52:50;;;;;;;7.80;3.55;;;;;;;19.89;58.29;99663.36;4277284;82;28472;-83
2021/06/14 02:58:52;;;;;;;6.97;3.55;;;;;;;19.89;58.68;99667.45;4310628;81;28485;-85
2021/06/14 03:04:54;;;;;;;11.30;3.65;;;;;;;19.70;59.74;99663.69;4318331;82;28496;-82
2021/06/14 03:10:58;;;;;;;7.15;3.22;;;;;;;19.98;58.72;99670.45;4310361;81;28537;-81
2021/06/14 03:17:03;;;;;;;10.35;4.08;;;;;;;20.15;58.02;99671.47;4280042;81;28523;-82
2021/06/14 03:23:04;;;;;;;8.70;3.40;;;;;;;20.33;57.07;99665.91;4296428;81;28553;-83
2021/06/14 03:29:09;;;;;;;10.25;2.92;;;;;;;20.37;56.61;99671.64;4288727;82;28469;-83
2021/06/14 03:35:18;;;;;;;10.35;3.00;;;;;;;20.70;55.37;99673.35;4292521;82;28485;-83
2021/06/14 03:41:19;;;;;;;8.35;3.17;;;;;;;20.86;54.62;99674.66;4288814;82;28532;-83
2021/06/14 03:47:20;;;;;;;8.25;3.20;;;;;;;21.06;53.85;99681.08;4310305;81;28449;-85
2021/06/14 03:53:32;;;;;;;8.18;2.98;;;;;;;21.02;54.49;99680.26;4287743;82;28486;-84
2021/06/14 03:59:34;;;;;;;8.15;3.42;;;;;;;21.21;53.93;99667.83;4306435;82;28446;-83
2021/06/14 04:05:35;;;;;;;7.15;3.10;;;;;;;21.34;53.58;99671.25;4291892;82;28462;-84
2021/06/14 04:11:51;;;;;;;6.60;2.93;;;;;;;21.62;53.18;99663.88;4261031;81;28489;-83
2021/06/14 04:17:52;;;;;;;7.53;3.10;;;;;;;21.94;52.24;99660.54;4305607;82;28530;-84
2021/06/14 04:23:53;;;;;;;8.18;3.35;;;;;;;21.69;52.48;99664.38;4276639;82;28455;-84
2021/06/14 04:29:54;;;;;;;7.58;3.08;;;;;;;22.35;50.96;99672.09;4305972;82;28534;-82
2021/06/14 04:35:56;;;;;;;9.65;2.55;;;;;;;22.18;51.33;99666.53;4307778;81;28505;-84
2021/06/14 04:41:57;;;;;;;7.58;2.55;;;;;;;22.52;48.84;99662.81;4292417;82;28492;-84
2021/06/14 04:47:59;;;;;;;8.15;2.35;;;;;;;22.34;49.59;99656.77;4303176;82;28484;-84
2021/06/14 04:54:01;;;;;;;7.62;2.42;;;;;;;22.50;48.34;99669.72;4271539;82;28529;-81
2021/06/14 05:00:06;;;;;;;8.98;2.80;;;;;;;22.33;47.75;99674.28;4267120;82;28546;-82
2021/06/14 05:06:08;;;;;;;9.98;2.60;;;;;;;21.82;49.06;99682.84;4300205;82;28481;-83
2021/06/14 05:12:10;;;;;;;9.10;2.50;;;;;;;22.59;47.82;99680.82;4294097;81;28454;-85
2021/06/14 05:18:12;;;;;;;8.20;2.40;;;;;;;22.75;45.84;99686.89;4340019;79;28525;-84
2021/06/14 05:24:13;;;;;;;6.53;2.50;;;;;;;23.32;44.02;99680.52;4302805;79;28492;-82
2021/06/14 05:30:16;;;;;;;9.70;2.95;;;;;;;23.65;44.44;99678.55;4290355;82;28493;-81
2021/06/14 05:36:17;;;;;;;5.65;2.17;;;;;;;23.61;43.99;99680.28;4285329;82;28502;-80
2021/06/14 05:42:19;;;;;;;8.43;2.45;;;;;;;23.47;44.61;99679.43;4279938;81;28459;-80
2021/06/14 05:48:21;;;;;;;6.33;2.00;;;;;;;23.27;45.51;99685.50;4292803;82;28465;-83
2021/06/14 05:54:23;;;;;;;6.85;1.80;;;;;;;23.40;43.80;99686.69;4278736;82;28488;-83
2021/06/14 06:00:24;;;;;;;5.35;1.80;;;;;;;23.36;43.56;99692.53;4285277;81;28540;-82
2021/06/14 06:06:26;;;;;;;5.87;1.67;;;;;;;22.88;43.22;99688.08;4275599;82;28455;-83
2021/06/14 06:12:27;;;;;;;6.90;1.85;;;;;;;22.61;44.69;99689.02;4286186;81;28488;-83
2021/06/14 06:18:29;;;;;;;5.08;1.70;;;;;;;22.91;43.66;99687.47;4300306;82;28594;-84
2021/06/14 06:24:30;;;;;;;8.85;1.90;;;;;;;23.32;42.64;99680.52;4299479;82;28508;-82
2021/06/14 06:30:36;;;;;;;5.42;1.80;;;;;;;22.59;43.80;99682.98;4292803;82;28519;-81
2021/06/14 06:36:36;;;;;;;6.65;1.70;;;;;;;23.37;42.15;99668.09;4293161;81;28487;-79
2021/06/14 06:42:38;;;;;;;5.33;1.57;;;;;;;23.51;42.87;99666.75;4297837;82;28477;-81
2021/06/14 06:48:39;;;;;;;5.92;2.10;;;;;;;23.45;42.15;99669.33;4294997;79;28579;-81
2021/06/14 06:54:41;;;;;;;4.53;1.75;;;;;;;23.51;42.32;99659.31;4295722;80;28465;-83
2021/06/14 07:00:47;;;;;;;4.45;1.75;;;;;;;23.73;41.87;99659.19;4322116;80;28459;-83
2021/06/14 07:06:46;;;;;;;7.72;2.10;;;;;;;24.10;41.69;99655.18;4294751;80;28494;-83
2021/06/14 07:12:47;;;;;;;5.00;1.70;;;;;;;24.20;41.15;99652.22;4288725;80;28513;-88
2021/06/14 07:18:53;;;;;;;4.78;1.50;;;;;;;24.27;40.51;99650.45;4271966;80;28442;-85
2021/06/14 07:24:53;;;;;;;6.25;2.10;;;;;;;24.64;40.09;99646.33;4311905;80;28462;-83
2021/06/14 07:30:55;;;;;;;4.75;1.65;;;;;;;24.47;40.28;99644.22;4277488;80;28485;-87
2021/06/14 07:36:57;;;;;;;5.22;2.08;;;;;;;24.93;39.64;99654.72;4265979;82;28436;-82
2021/06/14 07:42:58;;;;;;;7.00;2.05;;;;;;;24.68;40.53;99642.37;4266224;82;28460;-88
2021/06/14 07:49:00;;;;;;;8.73;2.30;;;;;;;25.67;39.71;99644.87;4270368;82;28522;-87
2021/06/14 07:55:03;;;;;;;5.90;2.20;;;;;;;25.51;38.73;99656.31;4291692;82;28508;-87
2021/06/14 08:01:04;;;;;;;5.37;2.22;;;;;;;26.05;38.15;99643.55;4324839;82;28555;-87
2021/06/14 08:07:06;;;;;;;5.17;1.80;;;;;;;25.23;37.98;99647.41;4335121;82;28521;-87
2021/06/14 08:13:08;;;;;;;5.28;1.80;;;;;;;25.53;38.22;99637.53;4282363;82;28462;-80
2021/06/14 08:19:24;;;;;;;3.90;1.25;;;;;;;25.12;39.18;99633.08;4313511;82;28566;-80
2021/06/14 08:25:16;;;;;;;5.17;1.80;;;;;;;25.41;37.88;99633.16;4314867;82;28441;-79
2021/06/14 08:31:18;;;;;;;5.17;1.37;;;;;;;24.84;37.87;99631.30;4291501;81;28504;-79
2021/06/14 08:37:20;;;;;;;3.62;1.30;;;;;;;26.15;37.01;99636.36;4279008;81;28457;-82
2021/06/14 08:43:22;;;;;;;2.25;0.78;;;;;;;25.84;36.41;99631.16;4318362;81;28447;-77
2021/06/14 08:49:25;;;;;;;4.53;1.30;;;;;;;23.55;36.41;99641.70;4303840;79;28464;-79
2021/06/14 08:55:27;;;;;;;2.40;0.90;;;;;;;25.13;36.63;99627.28;4276126;81;28896;-75
2021/06/14 09:01:29;;;;;;;2.90;0.98;;;;;;;23.78;35.38;99642.63;4316091;80;28486;-77
2021/06/14 09:07:31;;;;;;;2.52;1.00;;;;;;;24.72;33.85;99630.44;4301607;81;28493;-76
2021/06/14 09:13:33;;;;;;;2.77;1.00;;;;;;;24.44;33.38;99636.60;4189671;82;28554;-76
2021/06/14 09:19:39;;;;;;;2.40;1.15;;;;;;;25.04;32.53;99633.29;4217451;82;28485;-75
2021/06/14 09:25:48;;;;;;;3.55;0.90;;;;;;;26.12;32.70;99626.78;4199839;82;28481;-75
2021/06/14 09:31:53;;;;;;;1.62;0.90;;;;;;;25.76;31.39;99634.70;4203333;82;28490;-76
2021/06/14 09:38:02;;;;;;;3.13;0.70;;;;;;;25.93;31.04;99616.06;4211014;82;28515;-75
2021/06/14 09:44:04;;;;;;;1.95;0.90;;;;;;;26.00;29.82;99621.89;4219422;82;28483;-74
2021/06/14 09:50:08;;;;;;;2.62;0.95;;;;;;;25.46;32.64;99630.26;4190697;82;28466;-76
2021/06/14 10:02:19;;;;;;;1.32;0.88;;;;;;;26.88;29.53;99604.61;3808989;91;28450;-77
2021/06/14 10:08:32;;;;;;;2.42;0.82;;;;;;;25.88;30.20;99603.25;3798699;91;29386;-79
2021/06/14 10:14:33;;;;;;;2.05;0.98;;;;;;;25.95;30.44;99613.79;3798142;91;28486;-77
2021/06/14 10:20:39;;;;;;;1.35;0.80;;;;;;;25.30;30.97;99613.34;3802437;91;28496;-75
2021/06/14 10:26:47;;;;;;;1.93;1.03;;;;;;;26.38;30.00;99601.79;3831031;91;28481;-75
2021/06/14 10:32:50;;;;;;;1.45;1.02;;;;;;;26.17;30.35;99612.04;3806724;91;28528;-74
2021/06/14 10:38:53;;;;;;;2.10;0.93;;;;;;;25.69;30.88;99595.83;4067043;82;28489;-74
2021/06/14 10:44:54;;;;;;;2.62;1.02;;;;;;;25.43;29.97;99585.48;4207524;82;28455;-74
2021/06/14 10:51:00;;;;;;;2.10;1.10;;;;;;;25.44;30.23;99585.18;4188694;82;28883;-74
2021/06/14 10:57:09;;;;;;;3.25;1.10;;;;;;;26.14;29.76;99574.13;4307400;81;28544;-74
2021/06/14 11:03:14;;;;;;;2.75;1.00;;;;;;;25.33;31.36;99587.97;4327673;81;28510;-74
2021/06/14 11:09:15;;;;;;;2.27;1.10;;;;;;;26.10;30.75;99577.26;4342475;79;28506;-75
2021/06/14 11:15:18;;;;;;;2.17;0.88;;;;;;;26.30;29.60;99560.12;4167546;82;28534;-75
2021/06/14 11:21:22;;;;;;;3.17;1.10;;;;;;;26.82;27.34;99559.02;4211975;82;28454;-75
2021/06/14 11:27:23;;;;;;;2.12;1.20;;;;;;;26.42;30.69;99555.34;4315795;79;28524;-74
2021/06/14 11:45:38;;;;;;;1.77;1.12;;;;;;;27.15;28.71;99530.86;3690392;95;28625;-74
2021/06/14 11:51:40;;;;;;;3.95;1.27;;;;;;;27.13;27.95;99533.14;3718220;94;28489;-73
2021/06/14 11:57:46;;;;;;;2.77;1.20;;;;;;;26.22;30.33;99530.61;3786734;92;28456;-73
2021/06/14 12:04:00;;;;;;;5.47;1.47;;;;;;;26.35;30.04;99536.30;3783466;92;28495;-74
2021/06/14 12:10:07;;;;;;;2.83;1.10;;;;;;;27.09;29.87;99521.13;3767233;92;28557;-74
2021/06/14 12:16:09;;;;;;;3.45;1.40;;;;;;;25.96;31.38;99541.04;3928962;87;28476;-75
2021/06/14 12:22:11;;;;;;;3.52;1.95;;;;;;;25.70;31.02;99539.04;4160045;82;28446;-75
2021/06/14 12:28:16;;;;;;;2.62;1.32;;;;;;;27.30;28.52;99530.05;4215567;82;28451;-74
2021/06/14 12:34:27;;;;;;;2.65;1.20;;;;;;;26.91;29.35;99519.81;4157017;83;28483;-75
2021/06/14 12:40:29;;;;;;;2.55;1.30;;;;;;;27.93;28.13;99512.80;4337617;79;28633;-75
2021/06/14 12:46:34;;;;;;;2.27;1.30;;;;;;;26.54;30.29;99518.03;4263362;80;28485;-76
2021/06/14 12:52:35;;;;;;;2.12;1.25;;;;;;;26.16;30.49;99514.78;4306951;79;28533;-75
2021/06/14 12:58:39;;;;;;;1.42;0.90;;;;;;;27.35;28.00;99516.08;4332106;79;28455;-76
2021/06/14 13:04:42;;;;;;;2.52;1.07;;;;;;;27.30;27.46;99506.03;4354673;79;28467;-76
2021/06/14 13:10:49;;;;;;;4.15;1.37;;;;;;;26.81;28.83;99510.48;4350190;79;28462;-74
2021/06/14 13:16:51;;;;;;;3.08;1.20;;;;;;;26.73;28.49;99501.92;4324906;79;28505;-74
2021/06/14 13:22:52;;;;;;;4.40;1.07;;;;;;;28.09;27.08;99491.70;4335441;79;28433;-77
2021/06/14 13:28:54;;;;;;;1.47;0.93;;;;;;;28.66;27.16;99481.08;4286347;81;28545;-76
2021/06/14 13:34:59;;;;;;;2.10;1.00;;;;;;;27.52;27.86;99486.97;4278800;81;28487;-77
2021/06/14 13:41:01;;;;;;;3.08;1.10;;;;;;;26.78;28.19;99476.67;4302984;81;28509;-79
2021/06/14 13:47:06;;;;;;;1.50;1.02;;;;;;;28.47;27.21;99475.27;4286056;81;29082;-80
2021/06/14 13:53:11;;;;;;;3.87;1.37;;;;;;;29.05;26.66;99463.40;4288969;81;28463;-79
2021/06/14 13:59:27;;;;;;;2.00;1.07;;;;;;;28.07;28.05;99467.75;4308926;81;28494;-76
2021/06/14 14:05:32;;;;;;;3.67;1.07;;;;;;;26.82;28.96;99470.17;4331134;79;28466;-75
2021/06/14 14:11:33;;;;;;;4.03;1.22;;;;;;;27.60;29.27;99459.11;4316079;79;28477;-75
2021/06/14 14:17:35;;;;;;;1.87;1.00;;;;;;;27.18;29.97;99450.72;4314864;79;28511;-75
2021/06/14 14:23:36;;;;;;;3.87;1.10;;;;;;;27.37;29.03;99448.33;4330324;79;28437;-75
2021/06/14 14:29:38;;;;;;;4.33;1.37;;;;;;;27.50;28.20;99441.53;4336558;79;28576;-77
2021/06/14 14:36:03;;;;;;;1.35;1.05;;;;;;;27.69;28.84;99429.45;4320804;79;28575;-80
2021/06/14 14:42:08;;;;;;;2.70;1.07;;;;;;;27.82;28.14;99425.39;4349092;79;28572;-77
2021/06/14 14:48:12;;;;;;;2.35;1.00;;;;;;;27.74;27.88;99430.41;4318900;79;28466;-78
2021/06/14 14:54:17;;;;;;;3.55;1.10;;;;;;;28.89;27.52;99415.65;4290809;82;28569;-78
2021/06/14 15:00:19;;;;;;;2.50;1.25;;;;;;;27.28;29.46;99419.41;4287347;81;28556;-78
2021/06/14 15:06:20;;;;;;;2.77;1.07;;;;;;;26.72;30.13;99418.95;4288249;82;28547;-78
2021/06/14 15:12:22;;;;;;;2.50;1.30;;;;;;;27.69;27.24;99415.64;4292223;81;28455;-78
2021/06/14 15:18:29;;;;;;;2.65;1.37;;;;;;;27.12;28.38;99405.95;4282979;81;28473;-78
2021/06/14 15:24:32;;;;;;;3.90;1.20;;;;;;;27.54;28.04;99408.80;4280914;81;28521;-78
2021/06/14 15:30:38;;;;;;;2.17;1.00;;;;;;;27.73;27.68;99413.02;4274101;81;28487;-78
2021/06/14 15:36:39;;;;;;;2.35;1.20;;;;;;;28.04;28.54;99401.30;4297009;81;28489;-78
2021/06/14 15:42:45;;;;;;;2.77;1.40;;;;;;;27.40;29.01;99396.61;4297260;81;28463;-78
2021/06/14 15:48:49;;;;;;;4.35;1.10;;;;;;;28.21;28.24;99398.36;4289939;82;28553;-77
2021/06/14 15:54:50;;;;;;;2.52;1.12;;;;;;;26.92;29.35;99395.12;4284997;82;28533;-78
2021/06/14 16:00:53;;;;;;;4.03;1.10;;;;;;;27.86;28.91;99390.41;4283944;81;28438;-77
2021/06/14 16:06:54;;;;;;;2.17;1.00;;;;;;;27.75;28.34;99394.73;4294730;81;28490;-76
2021/06/14 16:12:58;;;;;;;3.95;1.30;;;;;;;27.43;28.84;99388.20;4300101;82;28463;-75
2021/06/14 16:18:59;;;;;;;1.67;1.00;;;;;;;27.45;28.29;99388.70;4299609;81;28503;-78
2021/06/14 16:25:01;;;;;;;3.47;0.98;;;;;;;27.99;28.05;99381.59;4301805;81;28520;-76
2021/06/14 16:31:04;;;;;;;4.78;1.82;;;;;;;28.16;27.83;99375.08;4287386;81;28491;-77
2021/06/14 16:37:06;;;;;;;3.20;1.22;;;;;;;27.97;28.09;99386.07;4304927;82;28497;-77
2021/06/14 16:43:08;;;;;;;1.82;1.20;;;;;;;27.26;28.35;99388.59;4285892;82;28458;-75
2021/06/14 16:49:10;;;;;;;1.55;0.98;;;;;;;26.50;28.83;99391.05;4282051;82;28442;-77
2021/06/14 16:55:12;;;;;;;2.15;1.27;;;;;;;26.95;28.83;99383.41;4282771;81;28490;-76
2021/06/14 17:01:14;;;;;;;2.80;1.10;;;;;;;27.95;27.73;99379.26;4302285;81;28475;-76
2021/06/14 17:07:15;;;;;;;3.05;1.15;;;;;;;29.70;26.04;99381.52;4273736;81;28501;-76
2021/06/14 17:13:16;;;;;;;2.37;1.10;;;;;;;30.27;25.65;99373.97;4303105;81;28440;-77
2021/06/14 17:19:18;;;;;;;3.05;1.20;;;;;;;30.00;25.79;99377.78;4310267;81;28457;-78
2021/06/14 17:25:20;;;;;;;2.22;1.27;;;;;;;29.97;25.91;99367.41;4332190;79;28464;-78
2021/06/14 17:31:21;;;;;;;2.33;1.12;;;;;;;29.16;26.53;99369.64;4336156;80;28551;-77
2021/06/14 17:37:23;;;;;;;2.67;1.15;;;;;;;30.06;25.66;99368.66;4199879;82;28469;-75
2021/06/14 17:43:24;;;;;;;5.55;1.20;;;;;;;30.37;25.25;99364.30;4195208;82;28468;-75
2021/06/14 17:49:27;;;;;;;4.62;1.20;;;;;;;30.15;25.53;99372.67;4182844;83;28452;-76
2021/06/14 17:55:36;;;;;;;3.62;1.30;;;;;;;30.95;24.89;99363.52;4326003;79;28510;-76
2021/06/14 18:01:43;;;;;;;3.75;1.30;;;;;;;30.25;25.71;99380.46;4322407;79;28451;-77
2021/06/14 18:07:44;;;;;;;5.70;1.25;;;;;;;30.84;24.86;99371.61;4317535;80;28481;-76
2021/06/14 18:13:46;;;;;;;3.25;1.40;;;;;;;32.49;23.34;99375.92;4320302;79;28536;-77
2021/06/14 18:19:47;;;;;;;4.62;1.40;;;;;;;30.74;25.33;99379.31;4319455;79;28491;-76
2021/06/14 18:25:49;;;;;;;5.12;1.60;;;;;;;29.44;26.59;99386.89;4306283;80;28434;-76
2021/06/14 18:31:53;;;;;;;5.72;1.65;;;;;;;28.68;27.88;99388.08;4314095;79;28581;-76
2021/06/14 18:37:54;;;;;;;2.90;1.60;;;;;;;28.15;28.75;99401.66;4307726;79;28509;-79
2021/06/14 18:43:55;;;;;;;2.35;1.40;;;;;;;28.62;28.29;99406.05;4276333;81;28526;-76
2021/06/14 18:49:57;;;;;;;3.80;1.60;;;;;;;28.06;29.87;99406.70;4310833;82;28431;-75
2021/06/14 18:55:58;;;;;;;3.35;1.70;;;;;;;27.82;29.88;99410.20;4316220;79;28517;-76
2021/06/14 19:02:00;;;;;;;2.70;1.50;;;;;;;26.76;35.64;99418.28;4308202;79;28557;-77
2021/06/14 19:08:02;;;;;;;3.92;1.55;;;;;;;26.55;35.53;99416.26;4103530;82;28627;-75
2021/06/14 19:14:06;;;;;;;4.65;1.62;;;;;;;26.02;37.15;99424.03;4204966;82;28581;-75
2021/06/14 19:20:10;;;;;;;6.12;2.02;;;;;;;26.17;35.92;99433.73;4308441;79;28481;-75
2021/06/14 19:26:11;;;;;;;8.25;1.80;;;;;;;25.53;37.32;99428.92;4322241;81;28451;-83
2021/06/14 19:32:13;;;;;;;5.25;1.90;;;;;;;24.94;38.91;99427.29;4305083;81;28445;-83
2021/06/14 19:38:15;;;;;;;5.60;1.80;;;;;;;24.26;39.75;99441.38;4301962;81;28457;-84
2021/06/14 19:44:16;;;;;;;2.87;2.00;;;;;;;24.20;40.04;99439.91;4364012;81;28479;-86
2021/06/14 19:50:18;;;;;;;2.25;1.60;;;;;;;23.76;40.72;99440.36;4137200;83;28466;-83
2021/06/14 19:56:20;;;;;;;3.15;1.90;;;;;;;24.08;40.40;99442.66;4145783;84;28492;-91
2021/06/14 20:02:24;;;;;;;3.67;2.05;;;;;;;23.52;42.38;99451.60;4102249;83;28486;-86
2021/06/14 20:08:25;;;;;;;2.98;1.82;;;;;;;23.02;45.04;99448.22;4160647;83;28461;-82
2021/06/14 20:14:27;;;;;;;5.60;1.92;;;;;;;23.08;44.93;99454.67;4157139;83;28480;-85
2021/06/14 20:20:29;;;;;;;4.85;2.10;;;;;;;22.89;45.70;99454.74;4156848;83;28534;-84
2021/06/14 20:26:30;;;;;;;5.25;2.20;;;;;;;22.77;48.00;99458.00;4204768;83;28460;-85
2021/06/14 20:32:32;;;;;;;7.15;3.17;;;;;;;22.37;50.00;99468.53;4198244;82;28502;-83
2021/06/14 20:38:34;;;;;;;5.15;2.40;;;;;;;22.28;49.59;99463.73;4353467;79;28438;-82
2021/06/14 20:44:35;;;;;;;4.40;2.15;;;;;;;22.30;47.45;99464.81;4304909;79;28773;-84
2021/06/14 20:50:36;;;;;;;6.25;2.22;;;;;;;22.41;48.95;99462.16;4334902;81;28449;-87
2021/06/14 20:56:38;;;;;;;5.83;2.90;;;;;;;22.17;49.22;99469.13;4288537;81;28534;-88
2021/06/14 21:02:40;;;;;;;3.42;2.22;;;;;;;21.71;52.15;99465.98;4327875;81;28508;-83
2021/06/14 21:08:42;;;;;;;4.53;2.33;;;;;;;21.81;48.28;99476.49;4325277;80;28481;-88
2021/06/14 21:14:43;;;;;;;3.77;2.05;;;;;;;21.71;49.65;99470.08;4288981;82;28442;-94
2021/06/14 21:20:44;;;;;;;4.35;2.47;;;;;;;21.50;50.48;99475.52;4302137;81;28503;-94
2021/06/14 21:26:45;;;;;;;4.78;2.00;;;;;;;21.31;51.25;99474.38;4319190;79;28451;-95
2021/06/14 21:32:49;;;;;;;5.50;2.55;;;;;;;21.09;53.99;99472.20;4282441;81;28532;-93
2021/06/14 21:38:50;;;;;;;3.67;2.45;;;;;;;21.76;49.13;99468.37;4332502;80;28463;-94
2021/06/14 21:44:53;;;;;;;7.33;2.30;;;;;;;21.21;52.58;99462.20;4349848;79;28445;-85
2021/06/14 21:50:54;;;;;;;4.33;2.33;;;;;;;20.81;55.81;99474.64;4188986;83;28511;-86
2021/06/14 21:56:56;;;;;;;5.25;2.40;;;;;;;20.56;55.44;99466.94;4308826;81;28501;-84
2021/06/14 22:02:58;;;;;;;6.00;2.10;;;;;;;20.77;53.59;99466.74;4294139;82;28492;-84
2021/06/14 22:09:01;;;;;;;7.58;2.60;;;;;;;20.19;59.20;99471.89;4306613;81;28485;-84
2021/06/14 22:15:04;;;;;;;6.65;2.87;;;;;;;20.20;58.50;99471.35;4292059;81;28539;-84
2021/06/14 22:21:05;;;;;;;7.15;2.83;;;;;;;20.52;56.82;99471.36;4290146;81;28505;-84
2021/06/14 22:27:07;;;;;;;5.47;2.70;;;;;;;20.26;58.21;99463.94;4299890;81;28504;-84
2021/06/14 22:33:09;;;;;;;6.90;2.65;;;;;;;20.27;57.88;99467.76;4282885;82;28461;-83
2021/06/14 22:39:10;;;;;;;6.05;2.83;;;;;;;20.15;58.08;99465.92;4297328;82;28506;-81
2021/06/14 22:45:13;;;;;;;6.62;3.20;;;;;;;20.07;59.66;99475.53;4288762;81;28488;-85
2021/06/14 22:51:15;;;;;;;6.70;3.02;;;;;;;20.20;58.05;99476.28;4292559;81;28473;-86
2021/06/14 22:57:16;;;;;;;7.03;3.25;;;;;;;20.41;57.62;99482.94;4284187;82;28551;-86
2021/06/14 23:03:17;;;;;;;6.42;3.20;;;;;;;20.03;58.64;99480.74;4286586;81;28440;-84
2021/06/14 23:09:19;;;;;;;8.08;3.77;;;;;;;19.61;62.73;99480.69;4307539;81;28459;-85
2021/06/14 23:15:20;;;;;;;6.58;3.37;;;;;;;19.41;62.15;99476.96;4305160;81;28453;-87
2021/06/14 23:21:22;;;;;;;6.70;3.37;;;;;;;19.39;63.40;99464.73;4293515;81;28466;-83
2021/06/14 23:27:23;;;;;;;7.72;3.40;;;;;;;19.38;63.61;99465.83;4288718;82;28449;-84
2021/06/14 23:33:24;;;;;;;6.55;3.25;;;;;;;19.43;63.24;99474.80;4295058;81;28447;-84
2021/06/14 23:39:26;;;;;;;7.03;3.12;;;;;;;19.41;63.08;99471.51;4301904;81;28565;-82
2021/06/14 23:45:27;;;;;;;6.70;3.10;;;;;;;19.70;59.69;99469.46;4296564;81;28441;-83
2021/06/14 23:51:29;;;;;;;8.33;3.42;;;;;;;19.20;64.30;99458.52;4269707;82;28462;-83
2021/06/14 23:57:30;;;;;;;6.65;3.35;;;;;;;19.10;64.73;99455.27;4292225;81;28467;-82
